AirNav   Everest Fuels
 
 1399 users online  

87KY Midwest Communication Heliport
Highland Heights, Kentucky, USA

GOING TO HIGHLAND HEIGHTS?


FAA INFORMATION EFFECTIVE 21 MAY 2020

Location

FAA Identifier: 87KY
Lat/Long: 39-02-20.2400N 084-27-45.3200W
39-02.337333N 084-27.755333W
39.0389556,-84.4625889
(estimated)
Elevation: 850 ft. / 259 m (estimated)
Variation: 03W (1985)
From city: 1 mile W of HIGHLAND HEIGHTS, KY
Time zone: UTC -4 (UTC -5 during Standard Time)
Zip code: 41076

Heliport Operations

Heliport use: Private use. Permission required prior to landing
Activation date: 05/1991
Control tower: no
ARTCC: INDIANAPOLIS CENTER
FSS: LOUISVILLE FLIGHT SERVICE STATION
Attendance: MON-SAT 0600-0000
Segmented circle: no

Heliport Communications

WX ASOS at LUK (4 nm NE): 120.25 (513-321-6291)
WX ASOS at CVG (10 nm W): PHONE 859-767-8210
WX AWOS-3 at I69 (12 nm E): 127.275 (513-732-6978)
WX AWOS-3PT at I67 (20 nm NW): 118.15 (513-569-4964)
WX ASOS at HAO (20 nm N): 121.425 (513-863-6137)

Nearby radio navigation aids

VOR radial/distance  VOR name  Freq  Var
CVGr087/11.3CINCINNATI VORTAC117.3004W
FLMr347/24.4FALMOUTH VOR/DME117.0004W
MXQr237/38.7MIDWEST VOR/DME112.9004W

 
NDB name  Hdg/Dist  Freq  Var  ID
CINCINNATI222/9.233504WLUK .-.. ..- -.-
SPORTYS263/11.724504WPWF .--. .-- ..-.
HOOK FIELD185/27.623904WHKF .... -.- ..-.

Heliport Services

Runway Information

Helipad H1

Dimensions: 23 x 23 ft. / 7 x 7 m
Surface: concrete
Latitude: 39-02.670667N
Longitude: 084-27.755333W
Elevation: 850.0 ft.
Traffic pattern: leftleft

Heliport Ownership and Management from official FAA records

Ownership: Privately-owned
Owner: MIDWEST COMMUNICATION
FOUR TESSENEER DRIVE
HIGHLAND HEIGHTS, KY 41076
Phone 513-871-3261
Manager: THOMAS BLAND
455 WILMER AVE
CINCINNATI, OH 45226
Phone 513-871-3261

Additional Remarks

FOR CD CTC CINCINNATI APCH AT 859-372-6440

Instrument Procedures

There are no published instrument procedures at 87KY.

Some nearby airports with instrument procedures:

KLUK - Cincinnati Municipal Airport-Lunken Field (4 nm NE)
KCVG - Cincinnati/Northern Kentucky International Airport (10 nm W)
I69 - Clermont County Airport (12 nm E)
I67 - Cincinnati West Airport (20 nm NW)
KHAO - Butler County Regional Airport-Hogan Field (20 nm N)
 
Loc | Ops | Rwys | IFR | FBO | Links
Com | Nav | Svcs | Stats | Notes
Area around 87KY (Midwest Communication Heliport)
 
Road maps at: MapQuest Bing Google
 
Aerial photo
No photo
 
Sectional chart

 
Airport distance calculator
Flying to Midwest Communication Heliport? Find the distance to fly.

From to 87KY

Sunrise and sunset
Times for 02-Jun-2020
 Local
(UTC-4)
 Zulu
(UTC)
Morning civil twilight05:4309:43
Sunrise06:1410:14
Sunset20:5800:58
Evening civil twilight21:2901:29

Current date and time
Zulu (UTC)  02-Jun-2020 14:17:11
Local (UTC-4)  02-Jun-2020 10:17:11
 
METAR
KLUK 
4nm NE 
021353Z 26008KT 10SM CLR 24/11 A3009 RMK AO2 SLP186 T02390111
KCVG 
10nm W 
021352Z 23013G18KT 10SM FEW230 BKN300 23/10 A3009 RMK AO2 SLP182 T02330100 $
KI69 
12nm E 
021356Z AUTO 25010G14KT 10SM CLR 23/11 A3011 RMK AO2 T02300109
KI67 
20nm NW 
021355Z AUTO 19005KT 10SM CLR 22/12 A3007 RMK AO1
KHAO 
20nm N 
021353Z AUTO 25006KT 10SM CLR 22/12 A3009 RMK AO2 SLP185 T02220117
TAF
KLUK 
4nm NE 
021123Z 0212/0312 21008KT P6SM FEW150 FM021500 24012G20KT P6SM FEW250 FM022300 25010KT P6SM FEW250
KCVG 
10nm W 
021123Z 0212/0318 21010KT P6SM FEW150 FM021500 24012G20KT P6SM FEW250 FM022300 24010KT P6SM FEW250 FM031500 25010G18KT P6SM FEW250
NOTAMs
Click for the latest NOTAMs
NOTAMs are issued by the DoD/FAA and will open in a separate window not controlled by AirNav.

 

 
 

Would you like to see your business listed on this page?

 If your business provides an interesting product or service to pilots, flight crews, aircraft, or users of the Midwest Communication Heliport, you should consider listing it here.  To start the listing process, click on the button below
 
Add a business
 

Other Pages about Midwest Communication Heliport

Update a link
 
Copyright © AirNav, LLC. All rights reserved. Privacy Policy  Contact